Time;durP1;ratioP1;P1;durP2;ratioP2;P2;SDS_P1;SDS_P2;PMS_P1;PMS_P2;Temp;Humidity;BMP_temperature;BMP_pressure;BME280_temperature;BME280_humidity;BME280_pressure;Samples;Min_cycle;Max_cycle;Signal;HPM_P1;HPM_P2
2023/03/29 00:02:29;;;;;;;;;;;;;;;-140.72;100.00;53021.97;5066049;28;19917;-69
2023/03/29 00:05:00;;;;;;;;;;;;;;;-140.72;100.00;52995.59;5075596;28;19928;-69
2023/03/29 00:07:26;;;;;;;;;;;;;;;-140.72;100.00;52999.66;5075905;28;19916;-69
2023/03/29 00:09:51;;;;;;;;;;;;;;;-140.72;100.00;53007.75;5073896;28;19916;-68
2023/03/29 00:12:17;;;;;;;;;;;;;;;-140.72;100.00;53007.75;5075039;28;19923;-69
2023/03/29 00:14:42;;;;;;;;;;;;;;;-140.72;100.00;52985.44;5072695;28;20015;-69
2023/03/29 00:17:07;;;;;;;;;;;;;;;-140.72;100.00;52993.56;5070583;28;20007;-74
2023/03/29 00:19:35;;;;;;;;;;;;;;;-140.72;100.00;52981.38;5072054;28;20382;-69
2023/03/29 00:22:01;;;;;;;;;;;;;;;-140.72;100.00;53011.81;5056832;28;19924;-68
2023/03/29 00:24:26;;;;;;;;;;;;;;;-140.72;100.00;53024.00;5074399;28;19925;-70
2023/03/29 00:26:51;;;;;;;;;;;;;;;-140.72;100.00;53024.00;5073434;28;19917;-68
2023/03/29 00:29:17;;;;;;;;;;;;;;;-140.72;100.00;53017.91;5073903;28;19916;-68
2023/03/29 00:31:44;;;;;;;;;;;;;;;-140.72;100.00;53038.19;5074358;28;19923;-68
2023/03/29 00:34:10;;;;;;;;;;;;;;;-140.72;100.00;53015.88;5056120;28;19971;-68
2023/03/29 00:36:35;;;;;;;;;;;;;;;-140.72;100.00;53024.00;5074053;28;19959;-68
2023/03/29 00:39:00;;;;;;;;;;;;;;;-140.72;100.00;53017.91;5074032;28;19916;-69
2023/03/29 00:41:26;;;;;;;;;;;;;;;-140.72;100.00;53019.94;5068925;28;19962;-70
2023/03/29 00:43:54;;;;;;;;;;;;;;;-140.72;100.00;53032.13;5069453;28;19974;-69
2023/03/29 00:46:20;;;;;;;;;;;;;;;-140.72;100.00;53011.81;5073059;28;19973;-69
2023/03/29 00:48:45;;;;;;;;;;;;;;;-140.72;100.00;53007.75;5072391;28;20018;-69
2023/03/29 00:51:13;;;;;;;;;;;;;;;-140.72;100.00;52983.41;5074397;28;19927;-68
2023/03/29 00:53:41;;;;;;;;;;;;;;;-140.72;100.00;52971.22;5075538;28;19960;-70
2023/03/29 00:56:12;;;;;;;;;;;;;;;-140.72;100.00;53003.69;5073862;28;20011;-69
2023/03/29 00:58:41;;;;;;;;;;;;;;;-140.72;100.00;52989.50;5073634;28;19955;-69
2023/03/29 01:01:09;;;;;;;;;;;;;;;-140.72;100.00;52997.63;5067654;28;19988;-68
2023/03/29 01:03:40;;;;;;;;;;;;;;;-140.72;100.00;53015.88;5070296;28;19917;-68
2023/03/29 01:06:07;;;;;;;;;;;;;;;-140.72;100.00;52999.66;5074089;28;19926;-69
2023/03/29 01:08:39;;;;;;;;;;;;;;;-140.72;100.00;53056.47;5066628;28;20406;-68
2023/03/29 01:11:18;;;;;;;;;;;;;;;-140.72;100.00;53015.88;5065226;28;19916;-68
2023/03/29 01:14:12;;;;;;;;;;;;;;;-140.72;100.00;53028.06;5069453;28;20294;-68
2023/03/29 01:16:37;;;;;;;;;;;;;;;-140.72;100.00;52959.06;5061162;28;20414;-69
2023/03/29 01:19:04;;;;;;;;;;;;;;;-140.72;100.00;52957.03;5066324;28;19978;-69
2023/03/29 01:21:36;;;;;;;;;;;;;;;-140.72;100.00;52987.47;5062228;28;19956;-69
2023/03/29 01:24:08;;;;;;;;;;;;;;;-140.72;100.00;52987.47;5066287;28;20379;-68
2023/03/29 01:26:42;;;;;;;;;;;;;;;-140.72;100.00;53001.66;5070400;28;19951;-69
2023/03/29 01:29:27;;;;;;;;;;;;;;;-140.72;100.00;53001.66;5064970;28;19916;-68
2023/03/29 01:31:58;;;;;;;;;;;;;;;-140.72;100.00;53007.75;5070213;28;19920;-68
2023/03/29 01:34:24;;;;;;;;;;;;;;;-140.72;100.00;52995.59;5063373;28;19917;-69
2023/03/29 01:36:59;;;;;;;;;;;;;;;-140.72;100.00;52977.31;5072665;28;20011;-69
2023/03/29 01:39:24;;;;;;;;;;;;;;;-140.72;100.00;53003.69;5072264;28;19924;-68
2023/03/29 01:41:59;;;;;;;;;;;;;;;-140.72;100.00;53005.72;5065902;28;19917;-68
2023/03/29 01:44:34;;;;;;;;;;;;;;;-140.72;100.00;53009.78;5073578;28;20027;-69
2023/03/29 01:47:17;;;;;;;;;;;;;;;-140.72;100.00;52981.38;5051702;28;19978;-68
2023/03/29 01:50:05;;;;;;;;;;;;;;;-140.72;100.00;52965.16;5042943;28;19982;-69
2023/03/29 01:52:35;;;;;;;;;;;;;;;-140.72;100.00;53036.16;5065527;28;19943;-69
2023/03/29 01:55:17;;;;;;;;;;;;;;;-140.72;100.00;53003.69;5070993;28;19917;-68
2023/03/29 01:57:44;;;;;;;;;;;;;;;-140.72;100.00;52985.44;5068667;28;19920;-69
2023/03/29 02:00:13;;;;;;;;;;;;;;;-140.72;100.00;52971.22;5072124;28;20430;-68
2023/03/29 02:05:42;;;;;;;;;;;;;;;-140.72;100.00;53007.75;5067722;28;20413;-69
2023/03/29 02:08:09;;;;;;;;;;;;;;;-140.72;100.00;52981.38;5077068;28;20015;-69
2023/03/29 02:10:35;;;;;;;;;;;;;;;-140.72;100.00;52981.38;5054629;28;19928;-68
2023/03/29 02:13:00;;;;;;;;;;;;;;;-140.72;100.00;53003.69;5069172;28;19924;-68
2023/03/29 02:15:26;;;;;;;;;;;;;;;-140.72;100.00;53001.66;5065628;28;20003;-69
2023/03/29 02:17:52;;;;;;;;;;;;;;;-140.72;100.00;53034.16;5070578;28;20290;-69
2023/03/29 02:20:21;;;;;;;;;;;;;;;-140.72;100.00;52983.41;5069137;28;19917;-69
2023/03/29 02:23:05;;;;;;;;;;;;;;;-140.72;100.00;52973.25;5070477;28;19920;-69
2023/03/29 02:25:31;;;;;;;;;;;;;;;-140.72;100.00;53026.03;5074169;28;20332;-68
2023/03/29 02:27:57;;;;;;;;;;;;;;;-140.72;100.00;52999.66;5068044;28;19920;-68
2023/03/29 02:30:24;;;;;;;;;;;;;;;-140.72;100.00;53009.78;5074090;28;19923;-68
2023/03/29 02:33:10;;;;;;;;;;;;;;;-140.72;100.00;52989.50;5047134;28;19929;-69
2023/03/29 02:35:39;;;;;;;;;;;;;;;-140.72;100.00;52997.63;5058923;28;19920;-69
2023/03/29 02:38:07;;;;;;;;;;;;;;;-140.72;100.00;52995.59;5077357;28;20541;-68
2023/03/29 02:40:33;;;;;;;;;;;;;;;-140.72;100.00;53019.94;5078898;28;19924;-68
2023/03/29 02:43:02;;;;;;;;;;;;;;;-140.72;100.00;53028.06;5076841;28;19921;-68
2023/03/29 02:45:28;;;;;;;;;;;;;;;-140.72;100.00;52991.53;5076559;28;19921;-69
2023/03/29 02:47:55;;;;;;;;;;;;;;;-140.72;100.00;52997.63;5074215;28;19929;-69
2023/03/29 02:50:21;;;;;;;;;;;;;;;-140.72;100.00;52983.41;5070162;28;20353;-69
2023/03/29 02:53:07;;;;;;;;;;;;;;;-140.72;100.00;53009.78;5055169;28;19948;-69
2023/03/29 02:55:35;;;;;;;;;;;;;;;-140.72;100.00;53034.16;5055550;28;19920;-68
2023/03/29 02:58:06;;;;;;;;;;;;;;;-140.72;100.00;52993.56;5065902;28;19931;-68
2023/03/29 03:00:33;;;;;;;;;;;;;;;-140.72;100.00;52959.06;5076607;28;19962;-68
2023/03/29 03:02:58;;;;;;;;;;;;;;;-140.72;100.00;53007.75;5075406;28;19916;-68
2023/03/29 03:05:24;;;;;;;;;;;;;;;-140.72;100.00;52985.44;5063492;28;19931;-68
2023/03/29 03:07:50;;;;;;;;;;;;;;;-140.72;100.00;52995.59;5076935;28;19921;-68
2023/03/29 03:10:15;;;;;;;;;;;;;;;-140.72;100.00;52981.38;5076001;28;20379;-68
2023/03/29 03:12:40;;;;;;;;;;;;;;;-140.72;100.00;52981.38;5076083;28;20397;-71
2023/03/29 03:15:06;;;;;;;;;;;;;;;-140.72;100.00;52995.59;5071747;28;19971;-68
2023/03/29 03:17:32;;;;;;;;;;;;;;;-140.72;100.00;52967.16;5064349;28;19917;-68
2023/03/29 03:19:57;;;;;;;;;;;;;;;-140.72;100.00;53026.03;5071295;28;19924;-68
2023/03/29 03:22:23;;;;;;;;;;;;;;;-140.72;100.00;53032.13;5075753;28;19923;-68
2023/03/29 03:24:49;;;;;;;;;;;;;;;-140.72;100.00;52971.22;5079544;28;20299;-68
2023/03/29 03:27:14;;;;;;;;;;;;;;;-140.72;100.00;53003.69;5066692;28;19924;-69
2023/03/29 03:29:40;;;;;;;;;;;;;;;-140.72;100.00;52983.41;5068066;28;20299;-68
2023/03/29 03:32:05;;;;;;;;;;;;;;;-140.72;100.00;53003.69;5060241;28;20021;-69
2023/03/29 03:34:30;;;;;;;;;;;;;;;-140.72;100.00;52963.13;5072422;28;20367;-68
2023/03/29 03:36:55;;;;;;;;;;;;;;;-140.72;100.00;53005.72;5074590;28;20378;-67
2023/03/29 03:39:21;;;;;;;;;;;;;;;-140.72;100.00;52981.38;5073449;28;20275;-68
2023/03/29 03:41:46;;;;;;;;;;;;;;;-140.72;100.00;52985.44;5075512;28;20429;-67
2023/03/29 03:44:12;;;;;;;;;;;;;;;-140.72;100.00;53011.81;5073051;28;19917;-68
2023/03/29 03:46:37;;;;;;;;;;;;;;;-140.72;100.00;53001.66;5075380;28;19966;-67
2023/03/29 03:49:03;;;;;;;;;;;;;;;-140.72;100.00;52973.25;5074828;28;19917;-68
2023/03/29 03:51:28;;;;;;;;;;;;;;;-140.72;100.00;52995.59;5074939;28;19920;-68
2023/03/29 03:53:53;;;;;;;;;;;;;;;-140.72;100.00;53005.72;5069248;28;20390;-68
2023/03/29 03:56:19;;;;;;;;;;;;;;;-140.72;100.00;52995.59;5074939;28;19977;-68
2023/03/29 03:58:44;;;;;;;;;;;;;;;-140.72;100.00;52969.19;5073134;28;19931;-68
2023/03/29 04:01:10;;;;;;;;;;;;;;;-140.72;100.00;52999.66;5054515;28;19928;-68
2023/03/29 04:03:38;;;;;;;;;;;;;;;-140.72;100.00;52999.66;5056667;28;19921;-68
2023/03/29 04:06:04;;;;;;;;;;;;;;;-140.72;100.00;52977.31;5070881;28;19920;-68
2023/03/29 04:08:29;;;;;;;;;;;;;;;-140.72;100.00;52991.53;5072903;28;19927;-68
2023/03/29 04:10:55;;;;;;;;;;;;;;;-140.72;100.00;52965.16;5071545;28;19928;-68
2023/03/29 04:13:21;;;;;;;;;;;;;;;-140.72;100.00;52950.94;5072744;28;19921;-68
2023/03/29 04:15:48;;;;;;;;;;;;;;;-140.72;100.00;52979.34;5071219;28;20389;-68
2023/03/29 04:18:14;;;;;;;;;;;;;;;-140.72;100.00;52989.50;5070295;28;19974;-69
2023/03/29 04:20:40;;;;;;;;;;;;;;;-140.72;100.00;52963.13;5070879;28;19931;-70
2023/03/29 04:23:05;;;;;;;;;;;;;;;-140.72;100.00;52973.25;5072507;28;19920;-67
2023/03/29 04:25:31;;;;;;;;;;;;;;;-140.72;100.00;52977.31;5075897;28;19920;-69
2023/03/29 04:27:56;;;;;;;;;;;;;;;-140.72;100.00;52965.16;5074560;28;19920;-68
2023/03/29 04:30:21;;;;;;;;;;;;;;;-140.72;100.00;52979.34;5073332;28;19924;-68
2023/03/29 04:32:46;;;;;;;;;;;;;;;-140.72;100.00;52975.28;5073236;28;20282;-68
2023/03/29 04:35:12;;;;;;;;;;;;;;;-140.72;100.00;52987.47;5073445;28;19917;-68
2023/03/29 04:37:39;;;;;;;;;;;;;;;-140.72;100.00;52995.59;5074138;28;20000;-69
2023/03/29 04:40:08;;;;;;;;;;;;;;;-140.72;100.00;52979.34;5058130;28;19916;-69
2023/03/29 04:42:34;;;;;;;;;;;;;;;-140.72;100.00;52975.28;5054749;28;19924;-68
2023/03/29 04:44:59;;;;;;;;;;;;;;;-140.72;100.00;53001.66;5073190;28;19962;-68
2023/03/29 04:47:28;;;;;;;;;;;;;;;-140.72;100.00;53005.72;5061993;28;19920;-68
2023/03/29 04:49:53;;;;;;;;;;;;;;;-140.72;100.00;52999.66;5069258;28;19920;-68
2023/03/29 04:52:18;;;;;;;;;;;;;;;-140.72;100.00;52995.59;5054674;28;19928;-69
2023/03/29 04:54:44;;;;;;;;;;;;;;;-140.72;100.00;52975.28;5064598;28;19916;-70
2023/03/29 04:57:09;;;;;;;;;;;;;;;-140.72;100.00;52979.34;5064407;28;20359;-68
2023/03/29 04:59:34;;;;;;;;;;;;;;;-140.72;100.00;52971.22;5069279;28;19929;-69
2023/03/29 05:02:01;;;;;;;;;;;;;;;-140.72;100.00;52975.28;5055138;28;19920;-69
2023/03/29 05:04:51;;;;;;;;;;;;;;;-140.72;100.00;52995.59;5073502;28;19922;-69
2023/03/29 05:07:17;;;;;;;;;;;;;;;-140.72;100.00;53003.69;5049907;28;19920;-70
2023/03/29 05:09:42;;;;;;;;;;;;;;;-140.72;100.00;52955.00;5072896;28;19927;-71
2023/03/29 05:12:07;;;;;;;;;;;;;;;-140.72;100.00;52942.81;5060842;28;20011;-69
2023/03/29 05:14:33;;;;;;;;;;;;;;;-140.72;100.00;52950.94;5072421;28;19924;-69
2023/03/29 05:16:58;;;;;;;;;;;;;;;-140.72;100.00;52983.41;5070757;28;19978;-69
2023/03/29 05:19:24;;;;;;;;;;;;;;;-140.72;100.00;52971.22;5053622;28;19916;-68
2023/03/29 05:21:51;;;;;;;;;;;;;;;-140.72;100.00;52975.28;5070695;28;20201;-69
2023/03/29 05:24:17;;;;;;;;;;;;;;;-140.72;100.00;52959.06;5063992;28;19974;-69
2023/03/29 05:26:43;;;;;;;;;;;;;;;-140.72;100.00;52999.66;5063649;28;19932;-69
2023/03/29 05:29:09;;;;;;;;;;;;;;;-140.72;100.00;52959.06;5068531;28;19920;-69
2023/03/29 05:31:36;;;;;;;;;;;;;;;-140.72;100.00;52975.28;5070260;28;20331;-68
2023/03/29 05:34:03;;;;;;;;;;;;;;;-140.72;100.00;52946.88;5068092;28;19920;-69
2023/03/29 05:36:28;;;;;;;;;;;;;;;-140.72;100.00;52973.25;5069508;28;19921;-69
2023/03/29 05:38:53;;;;;;;;;;;;;;;-140.72;100.00;52979.34;5073341;28;19917;-71
2023/03/29 05:41:19;;;;;;;;;;;;;;;-140.72;100.00;52979.34;5064518;28;20007;-69
2023/03/29 05:43:44;;;;;;;;;;;;;;;-140.72;100.00;52944.84;5047868;28;20367;-70
2023/03/29 05:46:11;;;;;;;;;;;;;;;-140.72;100.00;52981.38;5070052;28;20006;-69
2023/03/29 05:48:36;;;;;;;;;;;;;;;-140.72;100.00;52967.16;5070186;28;19921;-71
2023/03/29 05:51:02;;;;;;;;;;;;;;;-140.72;100.00;52975.28;5069540;28;19928;-71
2023/03/29 05:53:27;;;;;;;;;;;;;;;-140.72;100.00;52950.94;5066341;28;19925;-73
2023/03/29 05:55:53;;;;;;;;;;;;;;;-140.72;100.00;52971.22;5044248;28;19928;-71
2023/03/29 05:58:20;;;;;;;;;;;;;;;-140.72;100.00;52950.94;5047231;28;19920;-71
2023/03/29 06:00:47;;;;;;;;;;;;;;;-140.72;100.00;52991.53;5070334;28;19924;-69
2023/03/29 06:03:17;;;;;;;;;;;;;;;-140.72;100.00;52991.53;5071440;28;19923;-69
2023/03/29 06:05:42;;;;;;;;;;;;;;;-140.72;100.00;52991.53;5070402;28;19921;-68
2023/03/29 06:08:08;;;;;;;;;;;;;;;-140.72;100.00;52969.19;5072892;28;20293;-69
2023/03/29 06:10:36;;;;;;;;;;;;;;;-140.72;100.00;52979.34;5072012;28;19916;-69
2023/03/29 06:13:01;;;;;;;;;;;;;;;-140.72;100.00;52950.94;5069732;28;20008;-69
2023/03/29 06:15:26;;;;;;;;;;;;;;;-140.72;100.00;52995.59;5067645;28;20015;-69
2023/03/29 06:17:51;;;;;;;;;;;;;;;-140.72;100.00;53001.66;5067591;28;20026;-69
2023/03/29 06:20:17;;;;;;;;;;;;;;;-140.72;100.00;52967.16;5068250;28;19917;-69
2023/03/29 06:22:42;;;;;;;;;;;;;;;-140.72;100.00;52971.22;5055990;28;19921;-69
2023/03/29 06:25:09;;;;;;;;;;;;;;;-140.72;100.00;52983.41;5046688;28;19929;-69
2023/03/29 06:27:35;;;;;;;;;;;;;;;-140.72;100.00;52983.41;5068194;28;19924;-70
2023/03/29 06:30:07;;;;;;;;;;;;;;;-140.72;100.00;52938.75;5068504;28;19928;-68
2023/03/29 06:32:33;;;;;;;;;;;;;;;-140.72;100.00;52930.66;5067113;28;19927;-68
2023/03/29 06:34:58;;;;;;;;;;;;;;;-140.72;100.00;52967.16;5051148;28;19922;-69
2023/03/29 06:37:23;;;;;;;;;;;;;;;-140.72;100.00;52950.94;5052661;28;19928;-68
2023/03/29 06:39:51;;;;;;;;;;;;;;;-140.72;100.00;52967.16;5065916;28;20279;-69
2023/03/29 06:42:18;;;;;;;;;;;;;;;-140.72;100.00;52942.81;5060783;28;20340;-69
2023/03/29 06:44:44;;;;;;;;;;;;;;;-140.72;100.00;52961.09;5062454;28;19944;-69
2023/03/29 06:47:09;;;;;;;;;;;;;;;-140.72;100.00;52963.13;5065973;28;19920;-70
2023/03/29 06:49:34;;;;;;;;;;;;;;;-140.72;100.00;52952.97;5065068;28;19925;-68
2023/03/29 06:52:00;;;;;;;;;;;;;;;-140.72;100.00;52995.59;5066175;28;19921;-68
2023/03/29 06:54:25;;;;;;;;;;;;;;;-140.72;100.00;52936.72;5069627;28;19925;-68
2023/03/29 06:56:51;;;;;;;;;;;;;;;-140.72;100.00;52967.16;5067312;28;19925;-69
2023/03/29 06:59:16;;;;;;;;;;;;;;;-140.72;100.00;52932.66;5053655;28;19973;-68
2023/03/29 07:01:42;;;;;;;;;;;;;;;-140.72;100.00;52946.88;5067697;28;19920;-69
2023/03/29 07:04:08;;;;;;;;;;;;;;;-140.72;100.00;52948.91;5069092;28;19921;-68
2023/03/29 07:06:35;;;;;;;;;;;;;;;-140.72;100.00;52938.75;5066251;28;19931;-68
2023/03/29 07:09:01;;;;;;;;;;;;;;;-140.72;100.00;52934.69;5068611;28;20383;-68
2023/03/29 07:11:26;;;;;;;;;;;;;;;-140.72;100.00;52926.59;5068151;28;19935;-68
2023/03/29 07:13:51;;;;;;;;;;;;;;;-140.72;100.00;52934.69;5068968;28;19944;-69
2023/03/29 07:16:18;;;;;;;;;;;;;;;-140.72;100.00;52963.13;5070788;28;19932;-71
2023/03/29 07:18:43;;;;;;;;;;;;;;;-140.72;100.00;52932.66;5067965;28;20287;-70
2023/03/29 07:21:10;;;;;;;;;;;;;;;-140.72;100.00;52934.69;5066406;28;19927;-68
2023/03/29 07:23:36;;;;;;;;;;;;;;;-140.72;100.00;52916.44;5060656;28;19921;-68
2023/03/29 07:26:01;;;;;;;;;;;;;;;-140.72;100.00;52920.50;5064075;28;19920;-69
2023/03/29 07:28:27;;;;;;;;;;;;;;;-140.72;100.00;52926.59;5067546;28;20294;-68
2023/03/29 07:30:53;;;;;;;;;;;;;;;-140.72;100.00;52932.66;5066919;28;19952;-68
2023/03/29 07:33:19;;;;;;;;;;;;;;;-140.72;100.00;52942.81;5068515;28;19928;-69
2023/03/29 07:35:46;;;;;;;;;;;;;;;-140.72;100.00;52910.34;5049563;28;20325;-69
2023/03/29 07:38:11;;;;;;;;;;;;;;;-140.72;100.00;52957.03;5068023;28;20385;-68
2023/03/29 07:40:37;;;;;;;;;;;;;;;-140.72;100.00;52950.94;5073686;28;19921;-73
2023/03/29 07:43:06;;;;;;;;;;;;;;;-140.72;100.00;52888.03;5054975;28;20420;-69
2023/03/29 07:45:31;;;;;;;;;;;;;;;-140.72;100.00;52930.66;5069397;28;20015;-69
2023/03/29 07:47:57;;;;;;;;;;;;;;;-140.72;100.00;52881.94;5074013;28;19962;-69
2023/03/29 07:50:23;;;;;;;;;;;;;;;-140.72;100.00;52946.88;5073587;28;19959;-68
2023/03/29 07:52:48;;;;;;;;;;;;;;;-140.72;100.00;52890.06;5054634;28;19925;-69
2023/03/29 07:55:14;;;;;;;;;;;;;;;-140.72;100.00;52894.13;5064380;28;20276;-69
2023/03/29 07:57:40;;;;;;;;;;;;;;;-140.72;100.00;52869.75;5071467;28;19920;-69
2023/03/29 08:00:14;;;;;;;;;;;;;;;-140.72;100.00;52898.16;5055170;28;20011;-69
2023/03/29 08:02:43;;;;;;;;;;;;;;;-140.72;100.00;52924.56;5066762;28;19920;-69
2023/03/29 08:05:09;;;;;;;;;;;;;;;-140.72;100.00;52898.16;5071373;28;19921;-68
2023/03/29 08:07:34;;;;;;;;;;;;;;;-140.72;100.00;52886.00;5070051;28;19924;-69
2023/03/29 08:09:59;;;;;;;;;;;;;;;-140.72;100.00;52894.13;5072283;28;19924;-68
2023/03/29 08:12:25;;;;;;;;;;;;;;;-140.72;100.00;52859.63;5070381;28;19966;-68
2023/03/29 08:14:50;;;;;;;;;;;;;;;-140.72;100.00;52910.34;5069819;28;20383;-69
2023/03/29 08:17:15;;;;;;;;;;;;;;;-140.72;100.00;52861.66;5072003;28;19916;-68
2023/03/29 08:19:41;;;;;;;;;;;;;;;-140.72;100.00;52869.75;5070875;28;20492;-69
2023/03/29 08:22:07;;;;;;;;;;;;;;;-140.72;100.00;52855.56;5071184;28;20028;-70
2023/03/29 08:24:32;;;;;;;;;;;;;;;-140.72;100.00;52879.91;5072654;28;19928;-71
2023/03/29 08:26:57;;;;;;;;;;;;;;;-140.72;100.00;52883.97;5051794;28;20826;-70
2023/03/29 08:29:22;;;;;;;;;;;;;;;-140.72;100.00;52898.16;5054440;28;19921;-68
2023/03/29 08:31:48;;;;;;;;;;;;;;;-140.72;100.00;52886.00;5068363;28;20264;-68
2023/03/29 08:34:13;;;;;;;;;;;;;;;-140.72;100.00;52869.75;5066798;28;19986;-68
2023/03/29 08:36:39;;;;;;;;;;;;;;;-140.72;100.00;52910.34;5070557;28;19966;-68
2023/03/29 08:39:28;;;;;;;;;;;;;;;-140.72;100.00;52871.78;5068187;28;19921;-69
2023/03/29 08:41:53;;;;;;;;;;;;;;;-140.72;100.00;52833.22;5072872;28;19966;-68
2023/03/29 08:44:45;;;;;;;;;;;;;;;-140.72;100.00;52855.56;5073729;28;19924;-68
2023/03/29 08:47:34;;;;;;;;;;;;;;;-140.72;100.00;52886.00;5072082;28;19927;-69
2023/03/29 08:50:00;;;;;;;;;;;;;;;-140.72;100.00;52855.56;5039967;28;19920;-68
2023/03/29 08:52:40;;;;;;;;;;;;;;;-140.72;100.00;52865.69;5073238;28;19920;-69
2023/03/29 08:55:12;;;;;;;;;;;;;;;-140.72;100.00;52810.91;5069526;28;20027;-69
2023/03/29 08:57:47;;;;;;;;;;;;;;;-140.72;100.00;52837.28;5073215;28;20179;-68
2023/03/29 09:00:27;;;;;;;;;;;;;;;-140.72;100.00;52819.03;5069520;28;19920;-69
2023/03/29 09:02:53;;;;;;;;;;;;;;;-140.72;100.00;52894.13;5069281;28;19928;-69
2023/03/29 09:05:25;;;;;;;;;;;;;;;-140.72;100.00;52855.56;5070201;28;20382;-69
2023/03/29 09:07:51;;;;;;;;;;;;;;;-140.72;100.00;52841.34;5064434;28;19927;-72
2023/03/29 09:10:20;;;;;;;;;;;;;;;-140.72;100.00;52855.56;5065545;28;19999;-69
2023/03/29 09:13:02;;;;;;;;;;;;;;;-140.72;100.00;52841.34;5066579;28;19999;-70
2023/03/29 09:15:30;;;;;;;;;;;;;;;-140.72;100.00;52833.22;5069103;28;19927;-69
2023/03/29 09:18:10;;;;;;;;;;;;;;;-140.72;100.00;52869.75;5052292;28;19999;-70
2023/03/29 09:20:46;;;;;;;;;;;;;;;-140.72;100.00;52855.56;5069956;28;20007;-69
2023/03/29 09:23:12;;;;;;;;;;;;;;;-140.72;100.00;52806.84;5046432;28;19920;-70
2023/03/29 09:25:56;;;;;;;;;;;;;;;-140.72;100.00;52855.56;5073224;28;19916;-69
2023/03/29 09:28:33;;;;;;;;;;;;;;;-140.72;100.00;52881.94;5071669;28;19931;-71
2023/03/29 09:30:58;;;;;;;;;;;;;;;-140.72;100.00;52877.88;5073302;28;19917;-68
2023/03/29 09:39:56;;;;;;;;;;;;;;;-140.72;100.00;52861.66;5062805;28;19943;-69
2023/03/29 09:42:22;;;;;;;;;;;;;;;-140.72;100.00;52817.00;5072963;28;19923;-69
2023/03/29 09:44:52;;;;;;;;;;;;;;;-140.72;100.00;52871.78;5072748;28;19921;-69
2023/03/29 09:47:47;;;;;;;;;;;;;;;-140.72;100.00;52879.91;5048203;28;19917;-69
2023/03/29 09:50:16;;;;;;;;;;;;;;;-140.72;100.00;52857.59;5047362;28;20015;-69
2023/03/29 09:52:42;;;;;;;;;;;;;;;-140.72;100.00;52869.75;5072023;28;19970;-69
2023/03/29 09:55:11;;;;;;;;;;;;;;;-140.72;100.00;52865.69;5074113;28;19917;-69
2023/03/29 09:57:37;;;;;;;;;;;;;;;-140.72;100.00;52859.63;5073081;28;19924;-69
2023/03/29 10:00:04;;;;;;;;;;;;;;;-140.72;100.00;52873.81;5054602;28;19916;-69
2023/03/29 10:02:30;;;;;;;;;;;;;;;-140.72;100.00;52831.19;5054645;28;20356;-69
2023/03/29 10:04:59;;;;;;;;;;;;;;;-140.72;100.00;52847.44;5069833;28;19925;-72
2023/03/29 10:07:32;;;;;;;;;;;;;;;-140.72;100.00;52843.38;5073254;28;19924;-69
2023/03/29 10:09:58;;;;;;;;;;;;;;;-140.72;100.00;52896.16;5071451;28;19916;-70
2023/03/29 10:12:23;;;;;;;;;;;;;;;-140.72;100.00;52914.41;5073273;28;19924;-69
2023/03/29 10:14:51;;;;;;;;;;;;;;;-140.72;100.00;52867.72;5073159;28;20375;-70
2023/03/29 10:17:28;;;;;;;;;;;;;;;-140.72;100.00;52849.47;5069801;28;19968;-69
2023/03/29 10:19:57;;;;;;;;;;;;;;;-140.72;100.00;52821.06;5073271;28;19939;-69
2023/03/29 10:22:45;;;;;;;;;;;;;;;-140.72;100.00;52881.94;5061815;28;19916;-69
2023/03/29 10:25:12;;;;;;;;;;;;;;;-140.72;100.00;52863.66;5072129;28;20268;-69
2023/03/29 10:27:39;;;;;;;;;;;;;;;-140.72;100.00;52863.66;5074887;28;19917;-69
2023/03/29 10:30:11;;;;;;;;;;;;;;;-140.72;100.00;52871.78;5067253;28;19920;-70
2023/03/29 10:32:37;;;;;;;;;;;;;;;-140.72;100.00;52875.84;5076404;28;19920;-68
2023/03/29 10:35:13;;;;;;;;;;;;;;;-140.72;100.00;52853.53;5056994;28;19923;-68
2023/03/29 10:37:42;;;;;;;;;;;;;;;-140.72;100.00;52875.84;5058538;28;20286;-68
2023/03/29 10:40:34;;;;;;;;;;;;;;;-140.72;100.00;52869.75;5071236;28;19993;-69
2023/03/29 10:43:00;;;;;;;;;;;;;;;-140.72;100.00;52863.66;5071322;28;19986;-68
2023/03/29 10:45:27;;;;;;;;;;;;;;;-140.72;100.00;52859.63;5076236;28;19921;-68
2023/03/29 10:47:56;;;;;;;;;;;;;;;-140.72;100.00;52904.25;5080678;28;19916;-68
2023/03/29 10:50:22;;;;;;;;;;;;;;;-140.72;100.00;52843.38;5076354;28;19916;-69
2023/03/29 10:52:53;;;;;;;;;;;;;;;-140.72;100.00;52873.81;5075489;28;19924;-68
2023/03/29 10:55:20;;;;;;;;;;;;;;;-140.72;100.00;52867.72;5076028;28;19999;-68
2023/03/29 10:57:51;;;;;;;;;;;;;;;-140.72;100.00;52851.50;5057382;28;19916;-68
2023/03/29 11:00:42;;;;;;;;;;;;;;;-140.72;100.00;52853.53;5061698;28;19999;-68
2023/03/29 11:03:17;;;;;;;;;;;;;;;-140.72;100.00;52861.66;5056986;28;20398;-69
2023/03/29 11:05:47;;;;;;;;;;;;;;;-140.72;100.00;52825.13;5063416;28;20282;-68
2023/03/29 11:08:28;;;;;;;;;;;;;;;-140.72;100.00;52819.03;5055109;28;20016;-69
2023/03/29 11:11:02;;;;;;;;;;;;;;;-140.72;100.00;52808.88;5055719;28;20304;-68
2023/03/29 11:13:27;;;;;;;;;;;;;;;-140.72;100.00;52831.19;5056673;28;19920;-68
2023/03/29 11:16:05;;;;;;;;;;;;;;;-140.72;100.00;52817.00;5072527;28;19920;-67
2023/03/29 11:18:33;;;;;;;;;;;;;;;-140.72;100.00;52817.00;5050969;28;19920;-68
2023/03/29 11:21:01;;;;;;;;;;;;;;;-140.72;100.00;52825.13;5075096;28;19921;-69
2023/03/29 11:23:45;;;;;;;;;;;;;;;-140.72;100.00;52855.56;5075526;28;19988;-68
2023/03/29 11:26:17;;;;;;;;;;;;;;;-140.72;100.00;52835.25;5056535;28;19967;-67
2023/03/29 11:28:56;;;;;;;;;;;;;;;-140.72;100.00;52890.06;5074211;28;19920;-68
2023/03/29 11:31:35;;;;;;;;;;;;;;;-140.72;100.00;52869.75;5073651;28;20263;-69
2023/03/29 11:34:16;;;;;;;;;;;;;;;-140.72;100.00;52879.91;5065717;28;20288;-70
2023/03/29 11:36:41;;;;;;;;;;;;;;;-140.72;100.00;52845.41;5068616;28;19921;-69
2023/03/29 11:39:16;;;;;;;;;;;;;;;-140.72;100.00;52873.81;5064782;28;19946;-69
2023/03/29 11:41:43;;;;;;;;;;;;;;;-140.72;100.00;52863.66;5057402;28;20466;-70
2023/03/29 11:44:13;;;;;;;;;;;;;;;-140.72;100.00;52853.53;5065577;28;20371;-68
2023/03/29 11:46:43;;;;;;;;;;;;;;;-140.72;100.00;52863.66;5053414;28;19920;-68
2023/03/29 11:49:17;;;;;;;;;;;;;;;-140.72;100.00;52877.88;5076019;28;20024;-70
2023/03/29 11:51:54;;;;;;;;;;;;;;;-140.72;100.00;52881.94;5075075;28;19917;-69
2023/03/29 11:54:19;;;;;;;;;;;;;;;-140.72;100.00;52851.50;5070632;28;19963;-69
2023/03/29 11:56:59;;;;;;;;;;;;;;;-140.72;100.00;52845.41;5074864;28;19924;-71
2023/03/29 11:59:31;;;;;;;;;;;;;;;-140.72;100.00;52861.66;5069910;28;19928;-70
2023/03/29 12:02:01;;;;;;;;;;;;;;;-140.72;100.00;52845.41;5075340;28;20290;-69
2023/03/29 12:04:30;;;;;;;;;;;;;;;-140.72;100.00;52845.41;5073033;28;19962;-69
2023/03/29 12:07:08;;;;;;;;;;;;;;;-140.72;100.00;52873.81;5045858;28;19925;-70
2023/03/29 12:09:46;;;;;;;;;;;;;;;-140.72;100.00;52857.59;5074613;28;19920;-71
2023/03/29 12:12:17;;;;;;;;;;;;;;;-140.72;100.00;52817.00;5054927;28;19981;-69
2023/03/29 12:15:01;;;;;;;;;;;;;;;-140.72;100.00;52845.41;5071195;28;19958;-70
2023/03/29 12:17:29;;;;;;;;;;;;;;;-140.72;100.00;52835.25;5065277;28;19921;-71
2023/03/29 12:19:55;;;;;;;;;;;;;;;-140.72;100.00;52821.06;5074062;28;19951;-71
2023/03/29 12:22:21;;;;;;;;;;;;;;;-140.72;100.00;52831.19;5056242;28;20336;-71
2023/03/29 12:24:47;;;;;;;;;;;;;;;-140.72;100.00;52857.59;5073086;28;20488;-69
2023/03/29 12:27:32;;;;;;;;;;;;;;;-140.72;100.00;52831.19;5071891;28;19943;-70
2023/03/29 12:29:57;;;;;;;;;;;;;;;-140.72;100.00;52833.22;5064917;28;19924;-70
2023/03/29 12:32:25;;;;;;;;;;;;;;;-140.72;100.00;52790.63;5068416;28;19920;-69
2023/03/29 12:35:02;;;;;;;;;;;;;;;-140.72;100.00;52804.81;5071435;28;19928;-68
2023/03/29 12:37:49;;;;;;;;;;;;;;;-140.72;100.00;52782.50;5072623;28;19920;-69